Latest Weather Observations for Lombadina

IDW60801

Issued at 7:34 am WST Tuesday 17 October 2017 (issued every 30 minutes, with the page automatically refreshed every 10 minutes)

About weather observations | Map of weather stations | Latest weather observations for WA | Other Formats
Station Details ID: 503016 Name: LOMBADINA AIRSTRIP Lat: -16.52 Lon: 122.92 Height: 42.0 m
Data from the previous 72 hours. | See also: Recent months for locations in Western Australia
Date/Time
WST
Temp
°C
App
Temp
°C
Dew
Point
°C
Rel
Hum
%
Delta-T
°C
Wind Press
QNH
hPa
Press
MSL
hPa
Rain since
9am
mm
Dir  Spd
km/h
Gust
km/h
Spd
kts
Gust
kts
17/07:30am 29.6 32.3 20.2 57 6.2 SW 6 15 3 8 1008.9 1008.6 0.0
17/07:00am 28.7 31.5 21.5 65 4.8 SW 9 17 5 9 1008.4 1008.1 0.0
17/06:30am 27.5 30.9 22.7 75 3.3 SW 9 17 5 9 1008.0 1007.7 0.0
17/06:00am 26.7 31.1 23.4 82 2.3 SW 6 9 3 5 1007.9 1007.6 0.0
17/05:30am 26.1 31.1 23.2 84 2.0 SW 2 6 1 3 1007.7 1007.4 0.0
17/05:00am 26.2 31.6 23.3 84 2.0 CALM 0 6 0 3 1007.5 1007.2 0.0
17/04:30am 26.6 31.3 23.3 82 2.3 W 4 9 2 5 1007.0 1006.7 0.0
17/04:00am 26.9 30.4 22.9 79 2.7 WSW 9 19 5 10 1006.3 1006.0 0.0
17/03:30am 26.9 30.8 24.2 85 1.9 SW 11 22 6 12 1006.0 1005.7 0.0
17/03:00am 26.9 31.0 24.5 87 1.7 SW 11 22 6 12 1005.8 1005.5 0.0
17/02:30am 27.1 31.3 24.7 87 1.7 SW 11 24 6 13 1005.9 1005.6 0.0
17/02:00am 27.1 31.4 24.9 88 1.5 WSW 11 20 6 11 1005.9 1005.6 0.0
17/01:30am 27.2 31.6 25.0 88 1.5 WSW 11 20 6 11 1006.1 1005.8 0.0
17/01:00am 27.1 31.3 24.7 87 1.7 WSW 11 20 6 11 1006.4 1006.1 0.0
17/12:30am 27.2 31.4 24.1 83 2.1 WSW 9 19 5 10 1006.7 1006.4 0.0
17/12:00am 27.6 30.3 22.8 75 3.3 WSW 13 20 7 11 1006.9 1006.6 0.0
 
Date/Time
WST
Temp
°C
App
Temp
°C
Dew
Point
°C
Rel
Hum
%
Delta-T
°C
Wind Press
QNH
hPa
Press
MSL
hPa
Rain since
9am
mm
Dir  Spd
km/h
Gust
km/h
Spd
kts
Gust
kts
16/11:30pm 27.9 30.6 21.4 67 4.3 WSW 9 17 5 9 1007.1 1006.8 0.0
16/11:00pm 28.2 30.7 21.7 68 4.4 WSW 11 20 6 11 1007.3 1007.0 0.0
16/10:30pm 28.1 31.9 23.5 76 3.2 WSW 9 15 5 8 1007.7 1007.4 0.0
16/10:00pm 28.2 32.3 24.0 78 2.9 WSW 9 17 5 9 1007.8 1007.5 0.0
16/09:30pm 28.3 32.9 24.7 81 2.5 W 9 19 5 10 1007.8 1007.5 0.0
16/09:00pm 28.3 32.9 24.7 81 2.5 WSW 9 19 5 10 1007.8 1007.5 0.0
16/08:30pm 28.4 33.3 24.6 80 2.7 W 7 15 4 8 1007.7 1007.4 0.0
16/08:00pm 28.2 33.0 24.4 80 2.6 WSW 7 13 4 7 1007.6 1007.3 0.0
16/07:30pm 28.2 32.7 24.6 81 2.5 WSW 9 15 5 8 1007.4 1007.1 0.0
16/07:00pm 28.1 32.0 24.3 80 2.6 WSW 11 19 6 10 1007.0 1006.7 0.0
16/06:30pm 28.5 32.7 24.1 77 3.0 WSW 9 17 5 9 1006.9 1006.6 0.0
16/06:00pm 28.8 32.8 23.7 74 3.5 W 9 19 5 10 1006.5 1006.2 0.0
16/05:30pm 29.5 33.3 23.4 69 4.2 W 9 20 5 11 1006.2 1005.9 0.0
16/05:00pm 30.5 34.1 23.7 67 4.7 W 11 26 6 14 1006.0 1005.7 0.0
16/04:30pm 30.9 33.5 23.3 64 5.2 WSW 15 24 8 13 1006.0 1005.7 0.0
16/04:00pm 31.1 33.4 22.7 61 5.8 W 15 22 8 12 1005.9 1005.6 0.0
16/03:30pm 31.0 33.3 23.4 64 5.3 W 17 28 9 15 1005.8 1005.5 0.0
16/03:00pm 30.9 33.2 24.1 67 4.7 W 19 32 10 17 1005.6 1005.3 0.0
16/02:30pm 31.6 34.4 23.7 63 5.5 W 15 28 8 15 1005.8 1005.5 0.0
16/02:00pm 31.8 34.4 23.9 63 5.5 W 17 30 9 16 1006.0 1005.7 0.0
16/01:30pm 31.4 33.6 23.2 61 5.7 W 17 26 9 14 1006.1 1005.8 0.0
16/01:00pm 32.1 34.2 23.1 59 6.2 W 17 28 9 15 1006.7 1006.4 0.0
16/12:30pm 32.1 35.0 23.9 62 5.7 W 15 26 8 14 1007.1 1006.8 0.0
16/12:00pm 32.1 34.9 23.6 60 5.9 WNW 15 24 8 13 1007.8 1007.5 0.0
16/11:30am 32.8 36.0 24.3 61 6.0 W 15 28 8 15 1008.2 1007.9 0.0
16/11:00am 31.8 34.2 23.6 62 5.7 W 17 26 9 14 1008.7 1008.4 0.0
16/10:30am 31.4 34.1 23.5 63 5.5 W 15 26 8 14 1009.2 1008.9 0.0
16/10:00am 31.7 34.2 23.2 60 5.9 WNW 15 24 8 13 1009.6 1009.3 0.0
16/09:30am 31.7 34.8 23.5 62 5.7 WNW 13 20 7 11 1009.5 1009.2 0.0
16/09:00am 31.2 34.1 22.5 60 6.0 WNW 11 19 6 10 1009.6 1009.3 -
16/08:30am 30.9 35.1 24.1 67 4.7 W 9 17 5 9 1009.8 1009.5 -
16/08:00am 30.2 34.4 24.1 70 4.2 W 9 17 5 9 1009.8 1009.5 -
16/07:30am 29.3 34.1 24.4 75 3.4 W 7 15 4 8 1009.9 1009.6 -
16/07:00am 28.2 33.2 24.8 82 2.4 W 7 15 4 8 1009.9 1009.6 -
16/06:30am 27.5 33.9 25.5 89 1.4 NW 2 6 1 3 1009.8 1009.5 -
16/06:00am 25.9 32.5 25.2 96 0.5 CALM 0 0 0 0 1009.4 1009.1 -
16/05:30am 25.0 31.1 24.5 97 0.3 CALM 0 2 0 1 1009.1 1008.8 -
16/05:00am 25.2 30.6 24.5 96 0.5 N 4 7 2 4 1008.7 1008.4 -
16/04:30am 25.1 31.1 24.2 95 0.6 CALM 0 0 0 0 1008.5 1008.2 -
16/04:00am 25.4 31.1 24.4 94 0.7 NW 2 4 1 2 1008.3 1008.0 -
16/03:30am 26.0 31.6 24.8 93 0.8 NW 4 6 2 3 1008.2 1007.9 -
16/03:00am 26.1 32.2 25.1 94 0.7 W 2 6 1 3 1008.1 1007.8 -
16/02:30am 26.2 32.2 24.8 92 1.0 W 2 6 1 3 1008.0 1007.7 -
16/02:00am 26.5 32.5 24.9 91 1.1 W 2 6 1 3 1008.0 1007.7 -
16/01:30am 26.5 32.3 24.5 89 1.4 WNW 2 7 1 4 1008.1 1007.8 -
16/01:00am 26.9 32.7 24.5 87 1.7 W 2 7 1 4 1008.4 1008.1 0.0
16/12:30am 26.9 32.2 24.4 86 1.7 NW 4 7 2 4 1008.2 1007.9 0.0
16/12:00am 27.1 32.0 24.4 85 1.9 WNW 6 7 3 4 1008.5 1008.2 0.0
 
Date/Time
WST
Temp
°C
App
Temp
°C
Dew
Point
°C
Rel
Hum
%
Delta-T
°C
Wind Press
QNH
hPa
Press
MSL
hPa
Rain since
9am
mm
Dir  Spd
km/h
Gust
km/h
Spd
kts
Gust
kts
15/11:30pm 26.6 32.8 24.6 89 1.4 CALM 0 2 0 1 1008.7 1008.4 0.0
15/11:00pm 27.1 32.7 24.9 88 1.5 NW 4 7 2 4 1009.0 1008.7 0.0
15/10:30pm 27.1 32.6 24.7 87 1.7 N 4 7 2 4 1009.2 1008.9 0.0
15/10:00pm 27.2 32.8 24.3 84 2.0 NNE 2 7 1 4 1009.4 1009.1 0.0
15/09:30pm 27.8 33.0 24.2 81 2.5 NW 4 6 2 3 1009.4 1009.1 0.0
15/09:00pm 27.9 33.4 24.1 80 2.6 NW 2 6 1 3 1009.2 1008.9 0.0
15/08:30pm 28.4 34.4 24.2 78 2.9 CALM 0 4 0 2 1008.9 1008.6 0.0
15/08:00pm 28.8 34.1 23.7 74 3.5 NW 2 7 1 4 1008.4 1008.1 0.0
15/07:30pm 29.1 33.6 24.0 74 3.5 W 7 13 4 7 1008.0 1007.7 0.0
15/07:00pm 29.2 34.1 23.6 72 3.9 W 4 9 2 5 1007.7 1007.4 0.0
15/06:30pm 29.3 33.1 22.8 68 4.4 W 7 11 4 6 1007.1 1006.8 0.0
15/06:00pm 29.4 33.9 24.0 72 3.8 W 7 15 4 8 1006.7 1006.4 0.0
15/05:30pm 29.6 33.4 23.5 69 4.2 W 9 17 5 9 1006.5 1006.2 0.0
15/05:00pm 30.4 34.1 23.3 66 4.9 W 9 17 5 9 1006.0 1005.7 0.0
15/04:30pm 30.8 33.9 22.9 62 5.4 W 11 17 6 9 1005.7 1005.4 0.0
15/04:00pm 31.3 34.3 22.6 60 6.0 WNW 11 19 6 10 1005.4 1005.1 0.0
15/03:30pm 32.7 35.6 23.1 57 6.6 W 13 20 7 11 1005.3 1005.0 0.0
15/03:00pm 32.0 33.3 20.9 52 7.5 WNW 15 22 8 12 1005.1 1004.8 0.0
15/02:30pm 32.2 33.9 22.3 56 6.8 WNW 17 24 9 13 1005.1 1004.8 0.0
15/02:00pm 33.2 35.5 23.5 56 6.8 NW 17 26 9 14 1005.4 1005.1 0.0
15/01:30pm 32.0 34.4 23.0 59 6.2 NW 15 22 8 12 1005.8 1005.5 0.0
15/01:00pm 32.7 35.0 22.8 56 6.8 NW 15 24 8 13 1006.2 1005.9 0.0
15/12:30pm 33.7 36.2 23.1 54 7.3 NW 15 19 8 10 1006.7 1006.4 0.0
15/12:00pm 33.1 35.3 21.9 51 7.6 NW 13 20 7 11 1007.1 1006.8 0.0
15/11:30am 33.5 35.4 22.0 51 7.9 NW 15 22 8 12 1007.3 1007.0 0.0
15/11:00am 34.3 36.5 20.3 44 9.4 WNW 9 15 5 8 1007.6 1007.3 0.0
15/10:30am 35.5 36.1 15.3 30 12.7 SE 6 17 3 9 1008.1 1007.8 0.0
15/10:00am 34.0 34.6 16.8 35 11.0 E 9 17 5 9 1008.5 1008.2 0.0
15/09:30am 33.0 32.8 16.8 38 10.3 SE 13 22 7 12 1008.8 1008.5 0.0
15/09:00am 33.0 33.0 17.2 39 10.1 ESE 13 30 7 16 1008.8 1008.5 0.0
15/08:30am 32.5 32.8 17.9 41 9.4 SE 13 20 7 11 1008.9 1008.6 0.0
15/08:00am 31.6 33.6 19.9 50 7.7 SE 9 19 5 10 1008.7 1008.4 0.0
15/07:30am 30.4 33.6 20.6 55 6.5 SW 4 9 2 5 1008.7 1008.4 0.0
15/07:00am 29.1 32.6 21.8 64 4.9 SW 6 9 3 5 1008.7 1008.4 0.0
15/06:30am 28.5 32.8 22.7 71 3.9 W 4 7 2 4 1008.2 1007.9 0.0
15/06:00am 26.0 30.7 23.3 85 1.8 NW 4 6 2 3 1007.7 1007.4 0.0
15/05:30am 25.3 30.5 22.8 86 1.7 CALM 0 0 0 0 1007.3 1007.0 0.0
15/05:00am 25.3 30.4 22.6 85 1.8 CALM 0 0 0 0 1007.2 1006.9 0.0
15/04:30am 25.4 30.5 22.7 85 1.8 CALM 0 0 0 0 1006.7 1006.4 0.0
15/04:00am 25.7 30.8 22.6 83 2.1 CALM 0 4 0 2 1006.4 1006.1 0.0
15/03:30am 26.0 30.6 22.5 81 2.4 SW 2 7 1 4 1006.2 1005.9 0.0
15/03:00am 25.7 30.9 22.8 84 2.0 CALM 0 0 0 0 1006.0 1005.7 0.0
15/02:30am 26.1 30.8 22.6 81 2.4 ENE 2 4 1 2 1006.3 1006.0 0.0
15/02:00am 27.1 32.2 22.7 77 3.0 CALM 0 4 0 2 1006.5 1006.2 0.0
15/01:30am 27.5 32.0 22.9 76 3.1 ENE 4 7 2 4 1006.6 1006.3 0.0
15/01:00am 27.5 32.4 23.1 77 3.0 SW 2 7 1 4 1006.6 1006.3 0.0
15/12:30am 27.4 31.5 23.0 77 3.0 WSW 6 13 3 7 1006.5 1006.2 0.0
15/12:00am 27.5 31.6 22.9 76 3.1 WSW 6 11 3 6 1006.7 1006.4 0.0
 
Date/Time
WST
Temp
°C
App
Temp
°C
Dew
Point
°C
Rel
Hum
%
Delta-T
°C
Wind Press
QNH
hPa
Press
MSL
hPa
Rain since
9am
mm
Dir  Spd
km/h
Gust
km/h
Spd
kts
Gust
kts
14/11:30pm 27.8 31.7 23.0 75 3.3 WSW 7 13 4 7 1006.9 1006.6 0.0
14/11:00pm 27.9 32.1 23.5 77 3.0 WSW 7 15 4 8 1007.1 1006.8 0.0
14/10:30pm 27.7 32.3 24.1 81 2.5 WSW 7 13 4 7 1007.2 1006.9 0.0
14/10:00pm 27.6 32.2 24.2 82 2.4 WSW 7 13 4 7 1007.3 1007.0 0.0
14/09:30pm 27.7 32.5 24.5 83 2.2 W 7 13 4 7 1007.6 1007.3 0.0
14/09:00pm 27.8 32.3 24.6 83 2.2 WSW 9 20 5 11 1007.6 1007.3 0.0
14/08:30pm 27.9 32.7 24.5 82 2.4 WSW 7 17 4 9 1007.5 1007.2 0.0
14/08:00pm 28.0 32.5 24.6 82 2.4 WSW 9 17 5 9 1007.3 1007.0 0.0
14/07:30pm 28.0 32.1 24.6 82 2.4 WSW 11 17 6 9 1007.0 1006.7 0.0
14/07:00pm 28.0 32.5 24.6 82 2.4 WSW 9 15 5 8 1006.6 1006.3 0.0
14/06:30pm 28.1 33.0 24.7 82 2.4 WSW 7 15 4 8 1006.4 1006.1 0.0
14/06:00pm 28.4 32.8 25.0 82 2.4 WSW 11 20 6 11 1006.1 1005.8 0.0
14/05:30pm 28.9 32.9 25.1 80 2.7 W 13 22 7 12 1006.1 1005.8 0.0
14/05:00pm 29.6 33.5 24.9 76 3.3 W 13 22 7 12 1006.1 1005.8 0.0
14/04:30pm 30.1 33.4 24.5 72 3.9 WSW 15 24 8 13 1006.1 1005.8 0.0
14/04:00pm 30.5 33.6 24.2 69 4.4 W 15 26 8 14 1005.7 1005.4 0.0
14/03:30pm 31.2 34.3 24.1 66 5.0 W 15 26 8 14 1005.8 1005.5 0.0
14/03:00pm 31.9 34.9 24.0 63 5.5 WSW 15 24 8 13 1006.0 1005.7 0.0
14/02:30pm 32.3 35.0 23.5 59 6.1 W 15 22 8 12 1006.0 1005.7 0.0
14/02:00pm 32.2 35.1 23.2 59 6.2 WNW 13 20 7 11 1006.2 1005.9 0.0
14/01:30pm 33.3 36.8 24.2 59 6.4 W 13 22 7 12 1006.4 1006.1 0.0
14/01:00pm 33.0 35.7 24.2 60 6.2 WNW 17 24 9 13 1006.7 1006.4 0.0
14/12:30pm 33.3 37.1 24.7 60 6.1 WNW 13 20 7 11 1007.1 1006.8 0.0
14/12:00pm 32.2 35.5 24.5 64 5.4 NW 15 22 8 12 1007.6 1007.3 0.0
14/11:30am 31.9 35.4 24.2 63 5.4 NW 13 20 7 11 1008.1 1007.8 0.0
14/11:00am 33.6 37.7 23.9 57 6.8 NNW 9 17 5 9 1008.4 1008.1 0.0
14/10:30am 30.9 35.0 24.5 68 4.5 WNW 11 19 6 10 1009.0 1008.7 0.0
14/10:00am 31.6 35.0 24.0 64 5.3 WNW 13 20 7 11 1009.4 1009.1 0.0
14/09:30am 34.5 37.1 20.5 44 9.4 S 7 19 4 10 1009.6 1009.3 0.0
14/09:00am 33.9 36.2 20.6 45 8.9 S 9 20 5 11 1009.8 1009.5 0.0
14/08:30am 32.0 35.3 21.8 54 6.9 SW 7 13 4 7 1009.9 1009.6 0.0
14/08:00am 29.8 33.0 22.3 64 5.1 SSW 9 19 5 10 1010.2 1009.9 0.0

Other Formats:

Comma delimited format used in spreadsheet applications
http://www.bom.gov.au/fwo/IDW60801/IDW60801.99206.axf

JavaScript Object Notation format (JSON) in row-major order
http://www.bom.gov.au/fwo/IDW60801/IDW60801.99206.json